Time;durP1;ratioP1;P1;durP2;ratioP2;P2;SDS_P1;SDS_P2;PMS_P1;PMS_P2;Temp;Humidity;BMP_temperature;BMP_pressure;BME280_temperature;BME280_humidity;BME280_pressure;Samples;Min_cycle;Max_cycle;Signal;HPM_P1;HPM_P2
2023/08/24 00:00:59;;;;;;;6.70;6.00;;;;;;;;;;4998133;28;20180;-80
2023/08/24 00:03:26;;;;;;;6.93;5.40;;;;;;;;;;4997810;28;20219;-80
2023/08/24 00:05:52;;;;;;;6.97;5.40;;;;;;;;;;4991623;28;20292;-80
2023/08/24 00:08:18;;;;;;;7.10;5.97;;;;;;;;;;4995936;28;20188;-80
2023/08/24 00:10:46;;;;;;;10.70;6.13;;;;;;;;;;4998380;28;20654;-80
2023/08/24 00:13:13;;;;;;;6.67;6.07;;;;;;;;;;4996956;28;20223;-80
2023/08/24 00:15:39;;;;;;;7.27;6.43;;;;;;;;;;4992892;28;20197;-80
2023/08/24 00:18:06;;;;;;;6.30;5.70;;;;;;;;;;4995993;28;20186;-79
2023/08/24 00:20:36;;;;;;;7.57;5.67;;;;;;;;;;4994706;28;20196;-80
2023/08/24 00:23:03;;;;;;;5.97;4.40;;;;;;;;;;4992373;28;20216;-80
2023/08/24 00:25:30;;;;;;;4.40;4.00;;;;;;;;;;5005414;28;20210;-80
2023/08/24 00:27:56;;;;;;;5.50;4.17;;;;;;;;;;4991973;28;20545;-80
2023/08/24 00:30:24;;;;;;;4.23;3.90;;;;;;;;;;5010863;28;20199;-79
2023/08/24 00:32:50;;;;;;;5.10;3.97;;;;;;;;;;5005910;28;20302;-80
2023/08/24 00:35:16;;;;;;;4.67;4.10;;;;;;;;;;4991917;28;20246;-80
2023/08/24 00:37:42;;;;;;;4.33;3.93;;;;;;;;;;4978310;28;20180;-80
2023/08/24 00:40:09;;;;;;;7.53;4.03;;;;;;;;;;4991473;28;20196;-79
2023/08/24 00:42:43;;;;;;;5.77;4.00;;;;;;;;;;4995666;28;20568;-80
2023/08/24 00:45:10;;;;;;;5.77;4.30;;;;;;;;;;5006990;28;20701;-79
2023/08/24 00:47:37;;;;;;;5.10;3.77;;;;;;;;;;4994025;28;20179;-80
2023/08/24 00:50:03;;;;;;;4.50;4.10;;;;;;;;;;4990931;28;20199;-79
2023/08/24 00:52:31;;;;;;;7.03;3.70;;;;;;;;;;5009708;28;20230;-79
2023/08/24 00:55:02;;;;;;;4.33;3.93;;;;;;;;;;5005930;28;20586;-80
2023/08/24 00:57:28;;;;;;;6.33;3.97;;;;;;;;;;4985949;28;20184;-79
2023/08/24 00:59:55;;;;;;;7.07;4.87;;;;;;;;;;5009418;28;20250;-79
2023/08/24 01:02:22;;;;;;;7.13;5.10;;;;;;;;;;5007016;28;20224;-79
2023/08/24 01:04:48;;;;;;;5.23;4.70;;;;;;;;;;5007127;28;20194;-80
2023/08/24 01:07:15;;;;;;;7.53;5.30;;;;;;;;;;4987999;28;20219;-80
2023/08/24 01:09:41;;;;;;;6.00;5.37;;;;;;;;;;4993166;28;20637;-80
2023/08/24 01:12:07;;;;;;;6.13;5.50;;;;;;;;;;4992904;28;20319;-80
2023/08/24 01:14:42;;;;;;;5.80;5.30;;;;;;;;;;4996823;28;20237;-80
2023/08/24 01:17:11;;;;;;;7.50;4.90;;;;;;;;;;4990646;28;20183;-80
2023/08/24 01:19:42;;;;;;;6.73;5.20;;;;;;;;;;4991622;28;20190;-80
2023/08/24 01:22:15;;;;;;;5.93;5.23;;;;;;;;;;4999627;28;20235;-79
2023/08/24 01:24:45;;;;;;;7.90;5.50;;;;;;;;;;5025948;28;20242;-77
2023/08/24 01:27:13;;;;;;;5.30;4.80;;;;;;;;;;5024492;28;20186;-76
2023/08/24 01:29:40;;;;;;;6.10;5.50;;;;;;;;;;5027713;28;20197;-75
2023/08/24 01:32:10;;;;;;;6.10;5.17;;;;;;;;;;5044899;28;20224;-79
2023/08/24 01:34:39;;;;;;;5.87;5.10;;;;;;;;;;4999135;28;20240;-75
2023/08/24 01:37:06;;;;;;;6.63;6.00;;;;;;;;;;4985108;28;20188;-75
2023/08/24 01:39:40;;;;;;;7.33;5.70;;;;;;;;;;5004804;28;20179;-78
2023/08/24 01:42:08;;;;;;;6.37;5.80;;;;;;;;;;5002170;28;20809;-76
2023/08/24 01:44:38;;;;;;;6.23;5.63;;;;;;;;;;4997455;28;20207;-76
2023/08/24 01:47:05;;;;;;;8.10;5.53;;;;;;;;;;4996464;28;20504;-75
2023/08/24 01:49:32;;;;;;;5.97;5.47;;;;;;;;;;5022754;28;20245;-75
2023/08/24 01:51:59;;;;;;;7.33;5.40;;;;;;;;;;4999872;28;20191;-77
2023/08/24 01:54:26;;;;;;;7.43;5.67;;;;;;;;;;5004620;28;20206;-75
2023/08/24 01:56:54;;;;;;;6.30;5.70;;;;;;;;;;4996658;28;20210;-76
2023/08/24 01:59:20;;;;;;;6.10;5.50;;;;;;;;;;5006186;28;20190;-76
2023/08/24 02:01:46;;;;;;;7.07;6.37;;;;;;;;;;5023396;28;20191;-76
2023/08/24 02:04:13;;;;;;;8.20;6.10;;;;;;;;;;5007209;28;20203;-76
2023/08/24 02:06:39;;;;;;;7.53;6.20;;;;;;;;;;5001238;28;20343;-76
2023/08/24 02:09:06;;;;;;;6.90;6.23;;;;;;;;;;4999826;28;20195;-76
2023/08/24 02:11:32;;;;;;;6.80;6.10;;;;;;;;;;5004084;28;20214;-76
2023/08/24 02:13:58;;;;;;;6.83;5.97;;;;;;;;;;5003990;28;20216;-76
2023/08/24 02:16:24;;;;;;;6.43;5.83;;;;;;;;;;4996190;28;20531;-75
2023/08/24 02:18:51;;;;;;;6.70;6.10;;;;;;;;;;4997744;28;20213;-75
2023/08/24 02:21:17;;;;;;;6.20;5.60;;;;;;;;;;4997769;28;20188;-76
2023/08/24 02:23:43;;;;;;;7.43;6.00;;;;;;;;;;4998063;28;20242;-77
2023/08/24 02:26:09;;;;;;;7.27;5.80;;;;;;;;;;5004944;28;20186;-76
2023/08/24 02:28:37;;;;;;;6.70;5.80;;;;;;;;;;5001967;28;20205;-76
2023/08/24 02:31:04;;;;;;;6.80;6.10;;;;;;;;;;5004249;28;20673;-75
2023/08/24 02:33:30;;;;;;;6.90;6.20;;;;;;;;;;4998698;28;20239;-76
2023/08/24 02:35:57;;;;;;;7.40;6.70;;;;;;;;;;4992769;28;20180;-76
2023/08/24 02:38:24;;;;;;;7.73;7.00;;;;;;;;;;4989171;28;20192;-76
2023/08/24 02:41:01;;;;;;;7.80;6.60;;;;;;;;;;5002294;28;20171;-76
2023/08/24 02:43:27;;;;;;;7.83;6.70;;;;;;;;;;5002654;28;20199;-76
2023/08/24 02:45:54;;;;;;;7.23;6.53;;;;;;;;;;4988756;28;20191;-77
2023/08/24 02:48:20;;;;;;;7.57;6.87;;;;;;;;;;4999428;28;20291;-76
2023/08/24 02:50:47;;;;;;;7.17;6.43;;;;;;;;;;4990654;28;20183;-77
2023/08/24 02:53:14;;;;;;;7.50;6.77;;;;;;;;;;4994767;28;20265;-75
2023/08/24 02:55:40;;;;;;;7.10;6.40;;;;;;;;;;5001805;28;20583;-75
2023/08/24 02:58:06;;;;;;;7.27;5.90;;;;;;;;;;4996527;28;20259;-75
2023/08/24 03:00:33;;;;;;;7.63;6.37;;;;;;;;;;4997425;28;20564;-75
2023/08/24 03:02:59;;;;;;;8.60;7.03;;;;;;;;;;5006244;28;20272;-77
2023/08/24 03:05:25;;;;;;;8.03;7.07;;;;;;;;;;5003557;28;20630;-77
2023/08/24 03:07:52;;;;;;;8.00;7.30;;;;;;;;;;5001134;28;20183;-77
2023/08/24 03:10:18;;;;;;;8.13;7.43;;;;;;;;;;5000721;28;20179;-76
2023/08/24 03:12:44;;;;;;;7.50;6.80;;;;;;;;;;5003719;28;20704;-76
2023/08/24 03:15:10;;;;;;;7.80;6.93;;;;;;;;;;5008234;28;20202;-76
2023/08/24 03:17:36;;;;;;;8.23;7.50;;;;;;;;;;5006327;28;20214;-76
2023/08/24 03:20:03;;;;;;;8.60;7.80;;;;;;;;;;5007873;28;20187;-76
2023/08/24 03:22:29;;;;;;;9.17;7.63;;;;;;;;;;5011516;28;20207;-76
2023/08/24 03:24:55;;;;;;;8.10;7.30;;;;;;;;;;5009146;28;20684;-78
2023/08/24 03:27:22;;;;;;;7.43;6.83;;;;;;;;;;5009866;28;20187;-77
2023/08/24 03:29:48;;;;;;;8.13;7.33;;;;;;;;;;5034111;28;20183;-79
2023/08/24 03:32:14;;;;;;;8.43;6.60;;;;;;;;;;5006146;28;20219;-76
2023/08/24 03:34:40;;;;;;;7.70;7.10;;;;;;;;;;5002068;28;20191;-76
2023/08/24 03:37:06;;;;;;;7.70;6.30;;;;;;;;;;4984685;28;20187;-76
2023/08/24 03:39:32;;;;;;;7.30;6.60;;;;;;;;;;5008936;28;20182;-76
2023/08/24 03:41:58;;;;;;;6.93;6.20;;;;;;;;;;5029543;28;20215;-76
2023/08/24 03:44:25;;;;;;;8.03;5.50;;;;;;;;;;5032809;28;20219;-75
2023/08/24 03:46:51;;;;;;;6.27;5.67;;;;;;;;;;5003396;28;20639;-76
2023/08/24 03:49:17;;;;;;;5.70;5.10;;;;;;;;;;5022472;28;20199;-76
2023/08/24 03:51:43;;;;;;;7.17;5.17;;;;;;;;;;4998895;28;20203;-76
2023/08/24 03:54:09;;;;;;;5.87;5.10;;;;;;;;;;4986793;28;20219;-75
2023/08/24 03:56:35;;;;;;;6.03;5.37;;;;;;;;;;5027529;28;20179;-76
2023/08/24 03:59:03;;;;;;;7.33;5.60;;;;;;;;;;4994091;28;20183;-77
2023/08/24 04:01:29;;;;;;;5.87;4.80;;;;;;;;;;5014909;28;20191;-76
2023/08/24 04:03:55;;;;;;;6.03;4.97;;;;;;;;;;5006343;28;20211;-76
2023/08/24 04:06:21;;;;;;;5.70;4.97;;;;;;;;;;4990190;28;20567;-76
2023/08/24 04:08:47;;;;;;;5.50;5.00;;;;;;;;;;5016628;28;20540;-76
2023/08/24 04:11:13;;;;;;;6.43;4.60;;;;;;;;;;5000537;28;20204;-77
2023/08/24 04:13:40;;;;;;;4.87;4.47;;;;;;;;;;4997311;28;20203;-76
2023/08/24 04:16:06;;;;;;;4.13;3.83;;;;;;;;;;5007676;28;20206;-76
2023/08/24 04:18:32;;;;;;;4.87;4.37;;;;;;;;;;5010769;28;20175;-75
2023/08/24 04:20:59;;;;;;;6.53;4.50;;;;;;;;;;4990837;28;20598;-75
2023/08/24 04:23:28;;;;;;;5.23;4.33;;;;;;;;;;4999974;28;20212;-77
2023/08/24 04:25:55;;;;;;;4.37;4.00;;;;;;;;;;5005239;28;20198;-77
2023/08/24 04:28:21;;;;;;;7.10;4.53;;;;;;;;;;5003196;28;20175;-76
2023/08/24 04:30:51;;;;;;;4.53;4.13;;;;;;;;;;5003040;28;20222;-76
2023/08/24 04:33:17;;;;;;;4.40;4.10;;;;;;;;;;4999035;28;20712;-76
2023/08/24 04:35:45;;;;;;;4.73;4.33;;;;;;;;;;5000050;28;20198;-75
2023/08/24 04:38:12;;;;;;;5.00;4.20;;;;;;;;;;4998695;28;20191;-76
2023/08/24 04:40:46;;;;;;;6.90;4.70;;;;;;;;;;4976129;28;20657;-76
2023/08/24 04:43:12;;;;;;;5.00;4.50;;;;;;;;;;5007683;28;20257;-75
2023/08/24 04:45:38;;;;;;;6.67;6.07;;;;;;;;;;5005186;28;20175;-76
2023/08/24 04:48:04;;;;;;;7.20;6.50;;;;;;;;;;5002143;28;20187;-75
2023/08/24 04:50:30;;;;;;;7.43;6.77;;;;;;;;;;5000491;28;20222;-77
2023/08/24 04:52:56;;;;;;;7.90;6.33;;;;;;;;;;5005002;28;20730;-78
2023/08/24 04:55:23;;;;;;;6.67;6.17;;;;;;;;;;4998679;28;20184;-77
2023/08/24 04:57:49;;;;;;;6.47;5.47;;;;;;;;;;5003952;28;20183;-76
2023/08/24 05:00:16;;;;;;;6.00;5.50;;;;;;;;;;5001162;28;20702;-76
2023/08/24 05:02:43;;;;;;;7.33;5.80;;;;;;;;;;5006954;28;20290;-76
2023/08/24 05:05:15;;;;;;;6.90;6.30;;;;;;;;;;4997876;28;20184;-76
2023/08/24 05:07:41;;;;;;;6.87;5.50;;;;;;;;;;5003696;28;20180;-76
2023/08/24 05:10:08;;;;;;;6.23;5.63;;;;;;;;;;5004203;28;20199;-76
2023/08/24 05:12:35;;;;;;;8.13;6.00;;;;;;;;;;5000547;28;20222;-76
2023/08/24 05:15:02;;;;;;;9.47;6.63;;;;;;;;;;4994063;28;20183;-78
2023/08/24 05:17:29;;;;;;;7.10;5.47;;;;;;;;;;4999237;28;20188;-76
2023/08/24 05:19:55;;;;;;;6.27;5.43;;;;;;;;;;5005984;28;20275;-77
2023/08/24 05:22:21;;;;;;;6.07;5.57;;;;;;;;;;4999586;28;20197;-78
2023/08/24 05:24:47;;;;;;;6.03;5.43;;;;;;;;;;5007153;28;20199;-78
2023/08/24 05:27:14;;;;;;;5.87;5.20;;;;;;;;;;5003699;28;20187;-79
2023/08/24 05:29:40;;;;;;;5.87;5.27;;;;;;;;;;5014590;28;20191;-77
2023/08/24 05:32:06;;;;;;;7.83;6.07;;;;;;;;;;5001633;28;20216;-76
2023/08/24 05:34:32;;;;;;;8.43;6.37;;;;;;;;;;5000775;28;20240;-78
2023/08/24 05:36:58;;;;;;;8.50;6.87;;;;;;;;;;5000415;28;20531;-75
2023/08/24 05:39:24;;;;;;;8.23;6.63;;;;;;;;;;5001293;28;20183;-76
2023/08/24 05:41:53;;;;;;;7.30;6.53;;;;;;;;;;4998690;28;20241;-77
2023/08/24 05:44:21;;;;;;;7.33;6.53;;;;;;;;;;4998902;28;20209;-75
2023/08/24 05:46:47;;;;;;;7.33;6.60;;;;;;;;;;4987117;28;20609;-75
2023/08/24 05:49:14;;;;;;;11.57;7.03;;;;;;;;;;5000797;28;20267;-80
2023/08/24 05:51:40;;;;;;;11.47;7.53;;;;;;;;;;5007551;28;20234;-75
2023/08/24 05:54:06;;;;;;;8.60;6.60;;;;;;;;;;4998660;28;20281;-78
2023/08/24 05:56:32;;;;;;;9.83;6.40;;;;;;;;;;5003768;28;20237;-76
2023/08/24 05:58:59;;;;;;;7.03;6.43;;;;;;;;;;5000600;28;20187;-76
2023/08/24 06:01:25;;;;;;;8.53;7.17;;;;;;;;;;5000323;28;20187;-75
2023/08/24 06:03:52;;;;;;;7.97;7.00;;;;;;;;;;5003504;28;20249;-76
2023/08/24 06:06:18;;;;;;;7.30;6.60;;;;;;;;;;4996984;28;20669;-76
2023/08/24 06:08:44;;;;;;;7.37;6.60;;;;;;;;;;5005463;28;20183;-75
2023/08/24 06:11:10;;;;;;;9.03;6.50;;;;;;;;;;4995684;28;20268;-76
2023/08/24 06:13:36;;;;;;;7.10;6.40;;;;;;;;;;5000739;28;20203;-79
2023/08/24 06:16:02;;;;;;;6.83;6.20;;;;;;;;;;4996806;28;20180;-77
2023/08/24 06:18:29;;;;;;;7.43;6.30;;;;;;;;;;4997863;28;20549;-76
2023/08/24 06:20:55;;;;;;;9.80;7.27;;;;;;;;;;4989310;28;20191;-76
2023/08/24 06:23:21;;;;;;;9.93;6.93;;;;;;;;;;5002823;28;20218;-76
2023/08/24 06:25:47;;;;;;;8.47;6.90;;;;;;;;;;4997199;28;20210;-77
2023/08/24 06:28:14;;;;;;;8.30;6.57;;;;;;;;;;4996926;28;20188;-77
2023/08/24 06:30:40;;;;;;;7.50;6.67;;;;;;;;;;5008556;28;20712;-75
2023/08/24 06:33:07;;;;;;;9.60;6.57;;;;;;;;;;5004654;28;20211;-74
2023/08/24 06:35:36;;;;;;;6.60;6.00;;;;;;;;;;5006750;28;20250;-75
2023/08/24 06:38:03;;;;;;;9.37;6.63;;;;;;;;;;5006490;28;20668;-75
2023/08/24 06:40:30;;;;;;;8.73;7.60;;;;;;;;;;4999927;28;20194;-75
2023/08/24 06:42:56;;;;;;;9.50;7.07;;;;;;;;;;4989938;28;20570;-76
2023/08/24 06:45:23;;;;;;;7.80;6.80;;;;;;;;;;5001746;28;20179;-76
2023/08/24 06:47:49;;;;;;;6.23;5.63;;;;;;;;;;5001477;28;20183;-75
2023/08/24 06:50:15;;;;;;;8.63;6.73;;;;;;;;;;4997105;28;20725;-76
2023/08/24 06:52:42;;;;;;;7.83;6.60;;;;;;;;;;4999396;28;20612;-74
2023/08/24 06:55:12;;;;;;;8.20;6.53;;;;;;;;;;4997085;28;20176;-76
2023/08/24 06:57:38;;;;;;;7.43;6.73;;;;;;;;;;5011660;28;20194;-74
2023/08/24 07:00:08;;;;;;;8.73;7.73;;;;;;;;;;4996902;28;20176;-75
2023/08/24 07:02:36;;;;;;;10.43;7.80;;;;;;;;;;5013496;28;20210;-76
2023/08/24 07:05:08;;;;;;;7.93;6.87;;;;;;;;;;5008879;28;20194;-74
2023/08/24 07:07:34;;;;;;;8.33;7.40;;;;;;;;;;5001623;28;20184;-74
2023/08/24 07:10:01;;;;;;;10.37;7.50;;;;;;;;;;4996973;28;20271;-77
2023/08/24 07:12:27;;;;;;;10.63;8.57;;;;;;;;;;4998673;28;20267;-74
2023/08/24 07:14:53;;;;;;;11.20;8.50;;;;;;;;;;5006647;28;20294;-77
2023/08/24 07:17:19;;;;;;;8.67;7.87;;;;;;;;;;5005912;28;20180;-76
2023/08/24 07:19:45;;;;;;;8.50;7.60;;;;;;;;;;4998950;28;20612;-76
2023/08/24 07:24:47;;;;;;;10.83;7.80;;;;;;;;;;5026459;28;20214;-82
2023/08/24 07:27:13;;;;;;;10.47;7.67;;;;;;;;;;5020856;28;20183;-84
2023/08/24 07:29:39;;;;;;;9.20;7.80;;;;;;;;;;5019530;28;20202;-81
2023/08/24 07:32:05;;;;;;;8.97;7.90;;;;;;;;;;5025081;28;20254;-83
2023/08/24 07:34:31;;;;;;;8.33;7.00;;;;;;;;;;5029955;28;20286;-82
2023/08/24 07:36:58;;;;;;;8.30;7.60;;;;;;;;;;5029551;28;20590;-81
2023/08/24 07:39:24;;;;;;;9.03;6.70;;;;;;;;;;5039731;28;20240;-80
2023/08/24 07:41:55;;;;;;;8.33;6.97;;;;;;;;;;5029581;28;20183;-80
2023/08/24 07:44:21;;;;;;;8.30;7.43;;;;;;;;;;5027892;28;20350;-80
2023/08/24 07:46:49;;;;;;;8.37;7.40;;;;;;;;;;5024501;28;20219;-80
2023/08/24 07:49:15;;;;;;;7.30;6.60;;;;;;;;;;5029318;28;20724;-81
2023/08/24 07:51:42;;;;;;;8.63;6.83;;;;;;;;;;5016875;28;20222;-80
2023/08/24 07:54:09;;;;;;;9.37;6.80;;;;;;;;;;5030154;28;20215;-81
2023/08/24 07:56:36;;;;;;;8.03;6.40;;;;;;;;;;5033147;28;20182;-81
2023/08/24 07:59:02;;;;;;;7.37;6.67;;;;;;;;;;5034040;28;20252;-82
2023/08/24 08:01:28;;;;;;;7.80;7.00;;;;;;;;;;5033958;28;20571;-82
2023/08/24 08:03:54;;;;;;;10.13;6.90;;;;;;;;;;5032399;28;20209;-82
2023/08/24 08:06:21;;;;;;;7.37;6.10;;;;;;;;;;5045149;28;20208;-81
2023/08/24 08:08:50;;;;;;;8.60;6.17;;;;;;;;;;5038392;28;20265;-81
2023/08/24 08:11:21;;;;;;;7.30;6.60;;;;;;;;;;5033146;28;20210;-81
2023/08/24 08:13:47;;;;;;;6.33;5.47;;;;;;;;;;5031776;28;20214;-81
2023/08/24 08:16:13;;;;;;;9.67;6.23;;;;;;;;;;5025298;28;20190;-84
2023/08/24 08:18:39;;;;;;;6.33;5.43;;;;;;;;;;5031698;28;20285;-82
2023/08/24 08:21:10;;;;;;;8.13;5.50;;;;;;;;;;5022070;28;20183;-81
2023/08/24 08:23:36;;;;;;;5.93;4.90;;;;;;;;;;5033116;28;20221;-81
2023/08/24 08:26:02;;;;;;;5.10;4.30;;;;;;;;;;5031399;28;20232;-81
2023/08/24 08:28:29;;;;;;;6.93;3.60;;;;;;;;;;5014109;28;20202;-81
2023/08/24 08:30:55;;;;;;;3.73;3.40;;;;;;;;;;5048400;28;20186;-81
2023/08/24 08:33:21;;;;;;;4.17;3.03;;;;;;;;;;5029091;28;20211;-82
2023/08/24 08:35:48;;;;;;;5.77;3.50;;;;;;;;;;5030280;28;20229;-81
2023/08/24 08:38:14;;;;;;;5.20;3.50;;;;;;;;;;5028694;28;20185;-81
2023/08/24 08:40:41;;;;;;;3.93;3.20;;;;;;;;;;5033059;28;20719;-81
2023/08/24 08:43:07;;;;;;;4.47;3.13;;;;;;;;;;5031870;28;20203;-81
2023/08/24 08:45:33;;;;;;;5.57;3.37;;;;;;;;;;5028728;28;20255;-81
2023/08/24 08:48:00;;;;;;;7.50;3.30;;;;;;;;;;5015108;28;20194;-83
2023/08/24 08:50:27;;;;;;;3.93;3.20;;;;;;;;;;5032976;28;20187;-83
2023/08/24 08:52:53;;;;;;;6.63;3.27;;;;;;;;;;5048198;28;20629;-81
2023/08/24 08:55:19;;;;;;;4.83;3.13;;;;;;;;;;5031463;28;20297;-81
2023/08/24 08:57:49;;;;;;;6.53;3.63;;;;;;;;;;5037381;28;20195;-81
2023/08/24 09:00:17;;;;;;;3.30;3.00;;;;;;;;;;5003220;28;20193;-80
2023/08/24 09:02:45;;;;;;;4.40;3.30;;;;;;;;;;5032572;28;20271;-82
2023/08/24 09:05:11;;;;;;;3.67;3.37;;;;;;;;;;5033145;28;20186;-81
2023/08/24 09:07:39;;;;;;;4.33;3.20;;;;;;;;;;5032291;28;20225;-81
2023/08/24 09:10:07;;;;;;;3.80;3.00;;;;;;;;;;5032798;28;20711;-81
2023/08/24 09:12:34;;;;;;;3.27;2.97;;;;;;;;;;5031107;28;20233;-81
2023/08/24 09:15:04;;;;;;;3.30;2.83;;;;;;;;;;5032932;28;20240;-81
2023/08/24 09:17:30;;;;;;;5.20;2.90;;;;;;;;;;5030523;28;20262;-81
2023/08/24 09:19:58;;;;;;;5.57;2.90;;;;;;;;;;5032506;28;20270;-81
2023/08/24 09:22:24;;;;;;;3.50;2.97;;;;;;;;;;5030892;28;20179;-81
2023/08/24 09:24:51;;;;;;;3.27;2.73;;;;;;;;;;5032137;28;20186;-81
2023/08/24 09:27:18;;;;;;;3.40;2.93;;;;;;;;;;5032407;28;20638;-81
2023/08/24 09:29:49;;;;;;;3.87;3.10;;;;;;;;;;5030594;28;20284;-81
2023/08/24 09:32:15;;;;;;;6.30;3.17;;;;;;;;;;5040211;28;20739;-81
2023/08/24 09:34:42;;;;;;;3.10;2.77;;;;;;;;;;5030488;28;20269;-83
2023/08/24 09:37:15;;;;;;;3.40;2.80;;;;;;;;;;5003922;28;20232;-81
2023/08/24 09:39:42;;;;;;;4.83;3.00;;;;;;;;;;5027473;28;20214;-83
2023/08/24 09:42:08;;;;;;;3.00;2.77;;;;;;;;;;5031842;28;20186;-81
2023/08/24 09:44:34;;;;;;;3.20;2.83;;;;;;;;;;5041002;28;20205;-81
2023/08/24 09:47:00;;;;;;;6.03;2.80;;;;;;;;;;5030486;28;20672;-81
2023/08/24 09:49:28;;;;;;;3.10;2.80;;;;;;;;;;5037714;28;20264;-81
2023/08/24 09:51:58;;;;;;;5.17;3.30;;;;;;;;;;5030921;28;20222;-81
2023/08/24 09:54:27;;;;;;;4.10;2.77;;;;;;;;;;5012939;28;20205;-81
2023/08/24 09:56:56;;;;;;;5.30;3.10;;;;;;;;;;5038947;28;20567;-81
2023/08/24 09:59:24;;;;;;;3.40;2.77;;;;;;;;;;5030639;28;20640;-81
2023/08/24 10:01:51;;;;;;;3.67;2.80;;;;;;;;;;5032971;28;20679;-81
2023/08/24 10:04:24;;;;;;;4.30;3.00;;;;;;;;;;5038437;28;20285;-81
2023/08/24 10:06:59;;;;;;;4.27;2.83;;;;;;;;;;5030005;28;20687;-81
2023/08/24 10:09:36;;;;;;;5.77;2.90;;;;;;;;;;5031745;28;20275;-81
2023/08/24 10:12:04;;;;;;;3.10;2.80;;;;;;;;;;5031040;28;20262;-83
2023/08/24 10:14:40;;;;;;;5.57;2.60;;;;;;;;;;5030854;28;20268;-82
2023/08/24 10:17:07;;;;;;;4.57;3.10;;;;;;;;;;5014287;28;20189;-83
2023/08/24 10:19:33;;;;;;;2.80;2.53;;;;;;;;;;5002506;28;20843;-81
2023/08/24 10:22:00;;;;;;;4.97;3.00;;;;;;;;;;5030729;28;20238;-81
2023/08/24 10:24:27;;;;;;;3.37;3.03;;;;;;;;;;5040163;28;20731;-81
2023/08/24 10:26:53;;;;;;;3.80;2.90;;;;;;;;;;5014347;28;20270;-82
2023/08/24 10:29:20;;;;;;;8.17;3.30;;;;;;;;;;5023587;28;20200;-81
2023/08/24 10:31:47;;;;;;;4.60;3.10;;;;;;;;;;5047138;28;20218;-82
2023/08/24 10:34:13;;;;;;;3.63;2.80;;;;;;;;;;5031912;28;20202;-81
2023/08/24 10:36:40;;;;;;;3.80;2.77;;;;;;;;;;5033007;28;20229;-85
2023/08/24 10:39:06;;;;;;;3.47;2.60;;;;;;;;;;5030853;28;20185;-81
2023/08/24 10:41:52;;;;;;;4.53;2.80;;;;;;;;;;5029777;28;20279;-82
2023/08/24 10:44:37;;;;;;;3.80;2.60;;;;;;;;;;5012193;28;20222;-82
2023/08/24 10:47:14;;;;;;;4.40;2.67;;;;;;;;;;5012870;28;20224;-84
2023/08/24 10:49:40;;;;;;;7.50;3.13;;;;;;;;;;5023839;28;20667;-83
2023/08/24 10:52:19;;;;;;;3.43;2.80;;;;;;;;;;5022630;28;20213;-83
2023/08/24 10:54:49;;;;;;;3.40;2.80;;;;;;;;;;5035742;28;20277;-82
2023/08/24 10:57:27;;;;;;;6.20;3.20;;;;;;;;;;5036573;28;20189;-82
2023/08/24 11:00:05;;;;;;;3.63;2.80;;;;;;;;;;5038896;28;20293;-83
2023/08/24 11:02:42;;;;;;;3.23;2.93;;;;;;;;;;5037402;28;20231;-82
2023/08/24 11:05:16;;;;;;;3.17;2.83;;;;;;;;;;5039260;28;20194;-82
2023/08/24 11:07:50;;;;;;;4.43;3.10;;;;;;;;;;5030072;28;20194;-83
2023/08/24 11:10:16;;;;;;;5.83;3.10;;;;;;;;;;5029214;28;20666;-83
2023/08/24 11:13:02;;;;;;;3.87;2.80;;;;;;;;;;5030960;28;20222;-83
2023/08/24 11:15:39;;;;;;;3.23;2.80;;;;;;;;;;5030438;28;20206;-83
2023/08/24 11:18:12;;;;;;;4.27;3.00;;;;;;;;;;5028947;28;20210;-83
2023/08/24 11:20:41;;;;;;;3.10;2.90;;;;;;;;;;4986023;28;20195;-83
2023/08/24 11:23:07;;;;;;;5.67;3.10;;;;;;;;;;5027145;28;20231;-83
2023/08/24 11:25:36;;;;;;;4.43;3.00;;;;;;;;;;5018589;28;20258;-83
2023/08/24 11:28:04;;;;;;;3.33;3.00;;;;;;;;;;5016828;28;20183;-83
2023/08/24 11:30:30;;;;;;;3.37;2.80;;;;;;;;;;5034111;28;20279;-83
2023/08/24 11:32:56;;;;;;;5.30;3.00;;;;;;;;;;5031832;28;20212;-83
2023/08/24 11:35:23;;;;;;;3.70;3.30;;;;;;;;;;5038185;28;20258;-83
2023/08/24 11:37:52;;;;;;;4.10;2.70;;;;;;;;;;5033040;28;20189;-83
2023/08/24 11:40:20;;;;;;;3.03;2.80;;;;;;;;;;5033262;28;20319;-83
2023/08/24 11:42:46;;;;;;;4.17;3.00;;;;;;;;;;5014993;28;20220;-83
2023/08/24 11:45:14;;;;;;;3.23;2.80;;;;;;;;;;5012854;28;20664;-83
2023/08/24 11:47:40;;;;;;;3.30;3.00;;;;;;;;;;5029508;28;20193;-83
2023/08/24 11:50:07;;;;;;;4.17;3.13;;;;;;;;;;5034138;28;20190;-83
2023/08/24 11:52:35;;;;;;;7.03;3.07;;;;;;;;;;5034633;28;20221;-82
2023/08/24 11:55:02;;;;;;;3.23;2.90;;;;;;;;;;5029583;28;20190;-82
2023/08/24 11:57:28;;;;;;;2.93;2.73;;;;;;;;;;5042418;28;20204;-82
2023/08/24 11:59:55;;;;;;;3.17;2.60;;;;;;;;;;5040349;28;20217;-82
2023/08/24 12:02:22;;;;;;;3.40;2.93;;;;;;;;;;5040410;28;20193;-82
2023/08/24 12:04:49;;;;;;;5.37;2.97;;;;;;;;;;5042177;28;20259;-83
2023/08/24 12:07:17;;;;;;;2.80;2.60;;;;;;;;;;5044432;28;20253;-83
2023/08/24 12:09:43;;;;;;;5.17;2.70;;;;;;;;;;5023623;28;20179;-82
2023/08/24 12:12:13;;;;;;;3.43;3.10;;;;;;;;;;5041135;28;20641;-83
2023/08/24 12:14:42;;;;;;;3.73;3.20;;;;;;;;;;5038483;28;20184;-83
2023/08/24 12:17:13;;;;;;;3.43;2.90;;;;;;;;;;5038103;28;20187;-83
2023/08/24 12:19:45;;;;;;;4.33;3.93;;;;;;;;;;5038894;28;20277;-83
2023/08/24 12:22:16;;;;;;;5.83;3.40;;;;;;;;;;5053464;28;20190;-83
2023/08/24 12:24:45;;;;;;;4.23;3.47;;;;;;;;;;5016749;28;20209;-83
2023/08/24 12:27:21;;;;;;;3.90;3.00;;;;;;;;;;5036669;28;20192;-83
2023/08/24 12:29:48;;;;;;;3.53;3.23;;;;;;;;;;5035616;28;20244;-83
2023/08/24 12:32:16;;;;;;;4.27;3.27;;;;;;;;;;5039728;28;20220;-83
2023/08/24 12:34:43;;;;;;;3.33;3.03;;;;;;;;;;5038667;28;20756;-82
2023/08/24 12:37:09;;;;;;;3.73;3.33;;;;;;;;;;5039326;28;20687;-83
2023/08/24 12:39:36;;;;;;;4.40;4.00;;;;;;;;;;5023048;28;20180;-83
2023/08/24 12:42:03;;;;;;;5.13;3.53;;;;;;;;;;5041485;28;20200;-83
2023/08/24 12:44:30;;;;;;;4.47;3.30;;;;;;;;;;5041743;28;20206;-83
2023/08/24 12:46:56;;;;;;;4.00;3.60;;;;;;;;;;5022987;28;20261;-83
2023/08/24 12:49:22;;;;;;;4.00;3.40;;;;;;;;;;5041516;28;20211;-82
2023/08/24 12:51:48;;;;;;;4.00;3.43;;;;;;;;;;5057075;28;20238;-83
2023/08/24 12:54:14;;;;;;;4.67;3.27;;;;;;;;;;5038973;28;20212;-83
2023/08/24 12:56:40;;;;;;;3.70;3.37;;;;;;;;;;5015171;28;20293;-82
2023/08/24 12:59:07;;;;;;;4.13;3.30;;;;;;;;;;5032971;28;20333;-82
2023/08/24 13:01:33;;;;;;;6.37;3.40;;;;;;;;;;5008309;28;21206;-83
2023/08/24 13:03:59;;;;;;;3.53;2.97;;;;;;;;;;5032866;28;20563;-82
2023/08/24 13:06:25;;;;;;;4.60;3.27;;;;;;;;;;5032120;28;20253;-82
2023/08/24 13:08:53;;;;;;;5.17;3.17;;;;;;;;;;5031129;28;20194;-82
2023/08/24 13:11:19;;;;;;;6.83;3.30;;;;;;;;;;5020243;28;20191;-82
2023/08/24 13:13:45;;;;;;;5.53;3.47;;;;;;;;;;5033502;28;20612;-82
2023/08/24 13:16:11;;;;;;;4.10;3.27;;;;;;;;;;5023593;28;20195;-83
2023/08/24 13:18:37;;;;;;;3.63;3.27;;;;;;;;;;5041498;28;20187;-83
2023/08/24 13:21:03;;;;;;;3.53;3.20;;;;;;;;;;5015146;28;20215;-83
2023/08/24 13:23:30;;;;;;;6.40;3.17;;;;;;;;;;5048804;22;20266;-76
2023/08/24 13:25:59;;;;;;;3.77;3.20;;;;;;;;;;5026848;28;20238;-76
2023/08/24 13:28:25;;;;;;;6.17;3.40;;;;;;;;;;5026151;28;20183;-76
2023/08/24 13:30:51;;;;;;;3.40;3.10;;;;;;;;;;5029873;28;20181;-78
2023/08/24 13:33:19;;;;;;;3.57;3.17;;;;;;;;;;5025220;28;20214;-78
2023/08/24 13:35:45;;;;;;;5.00;3.20;;;;;;;;;;5027028;28;20182;-78
2023/08/24 13:38:11;;;;;;;3.73;3.20;;;;;;;;;;5025042;28;20183;-78
2023/08/24 13:40:37;;;;;;;5.43;3.30;;;;;;;;;;5025566;28;20584;-78
2023/08/24 13:43:04;;;;;;;5.13;3.40;;;;;;;;;;5030942;28;20298;-78
2023/08/24 13:45:31;;;;;;;4.90;3.17;;;;;;;;;;5030103;28;20539;-78
2023/08/24 13:47:57;;;;;;;4.90;3.40;;;;;;;;;;5026403;28;20186;-78
2023/08/24 13:50:23;;;;;;;4.97;3.40;;;;;;;;;;5021217;28;20196;-78
2023/08/24 13:52:50;;;;;;;4.97;3.10;;;;;;;;;;5021273;28;20205;-78
2023/08/24 13:55:16;;;;;;;5.30;3.30;;;;;;;;;;5031569;28;20193;-79
2023/08/24 13:57:42;;;;;;;3.53;3.20;;;;;;;;;;5034027;28;20178;-79
2023/08/24 14:00:09;;;;;;;3.80;3.03;;;;;;;;;;5032368;28;20180;-78
2023/08/24 14:02:38;;;;;;;3.97;3.33;;;;;;;;;;5027210;28;20204;-79
2023/08/24 14:05:08;;;;;;;4.13;3.10;;;;;;;;;;5026976;28;20182;-79
2023/08/24 14:07:35;;;;;;;5.40;3.30;;;;;;;;;;5030799;28;20260;-78
2023/08/24 14:10:02;;;;;;;9.63;3.27;;;;;;;;;;5026086;28;20195;-78
2023/08/24 14:12:29;;;;;;;4.33;3.70;;;;;;;;;;5028980;28;20685;-78
2023/08/24 14:14:55;;;;;;;6.17;3.60;;;;;;;;;;5025650;28;20806;-78
2023/08/24 14:17:21;;;;;;;5.57;3.50;;;;;;;;;;5025319;28;20249;-78
2023/08/24 14:19:47;;;;;;;3.60;3.30;;;;;;;;;;5021114;28;20579;-78
2023/08/24 14:22:13;;;;;;;5.30;3.63;;;;;;;;;;5026004;28;20182;-78
2023/08/24 14:24:40;;;;;;;6.03;3.57;;;;;;;;;;5030070;28;20221;-78
2023/08/24 14:27:06;;;;;;;6.10;3.87;;;;;;;;;;5023901;28;20227;-78
2023/08/24 14:29:32;;;;;;;4.57;3.60;;;;;;;;;;5025426;28;20200;-78
2023/08/24 14:31:58;;;;;;;4.97;3.90;;;;;;;;;;5029610;28;20699;-78
2023/08/24 14:34:24;;;;;;;4.37;3.50;;;;;;;;;;5025392;28;20206;-78
2023/08/24 14:36:50;;;;;;;4.67;3.73;;;;;;;;;;5024959;28;20174;-78
2023/08/24 14:39:17;;;;;;;4.00;3.60;;;;;;;;;;5023967;28;20186;-77
2023/08/24 14:41:43;;;;;;;6.57;3.73;;;;;;;;;;5023660;28;20184;-78
2023/08/24 14:44:09;;;;;;;5.63;3.90;;;;;;;;;;5025735;28;20663;-78
2023/08/24 14:46:35;;;;;;;5.07;3.70;;;;;;;;;;5027962;28;20184;-78